createdAt,value
2019-03-06T00:01:17.782Z,7.60
2019-03-06T00:03:45.969Z,7.67
2019-03-06T00:06:17.013Z,7.07
2019-03-06T00:08:44.083Z,7.37
2019-03-06T00:11:12.268Z,7.20
2019-03-06T00:13:40.504Z,8.63
2019-03-06T00:16:08.681Z,7.67
2019-03-06T00:18:36.896Z,7.53
2019-03-06T00:21:06.085Z,8.43
2019-03-06T00:23:34.429Z,8.07
2019-03-06T00:26:02.600Z,8.60
2019-03-06T00:28:30.779Z,7.37
2019-03-06T00:30:59.008Z,7.30
2019-03-06T00:33:27.256Z,7.67
2019-03-06T00:35:57.118Z,8.23
2019-03-06T00:38:25.298Z,6.67
2019-03-06T00:41:01.349Z,7.40
2019-03-06T00:43:29.527Z,7.17
2019-03-06T00:45:57.744Z,7.70
2019-03-06T00:48:25.949Z,7.07
2019-03-06T00:50:54.124Z,7.80
2019-03-06T00:53:22.341Z,7.77
2019-03-06T00:55:50.628Z,7.57
2019-03-06T00:58:18.844Z,7.70
2019-03-06T01:00:47.136Z,7.27
2019-03-06T01:03:16.277Z,7.27
2019-03-06T01:05:44.501Z,7.63
2019-03-06T01:08:12.696Z,7.83
2019-03-06T01:10:40.977Z,7.70
2019-03-06T01:13:09.196Z,8.03
2019-03-06T01:15:37.370Z,8.53
2019-03-06T01:18:05.601Z,8.57
2019-03-06T01:20:33.804Z,7.37
2019-03-06T01:23:02.029Z,8.30
2019-03-06T01:25:30.247Z,8.27
2019-03-06T01:27:58.699Z,8.07
2019-03-06T01:30:27.385Z,6.90
2019-03-06T01:33:06.457Z,8.13
2019-03-06T01:35:52.368Z,8.40
2019-03-06T01:38:28.165Z,8.03
2019-03-06T01:41:04.052Z,7.13
2019-03-06T01:43:46.124Z,7.23
2019-03-06T01:46:14.304Z,8.37
2019-03-06T01:48:42.539Z,8.43
2019-03-06T01:51:11.707Z,9.37
2019-03-06T01:53:40.137Z,8.93
2019-03-06T01:56:08.619Z,8.30
2019-03-06T01:58:36.833Z,8.63
2019-03-06T02:01:05.109Z,9.40
2019-03-06T02:03:33.305Z,9.10
2019-03-06T02:06:01.517Z,9.10
2019-03-06T02:08:29.741Z,9.67
2019-03-06T02:10:58.037Z,8.67
2019-03-06T02:13:26.257Z,9.43
2019-03-06T02:15:54.429Z,9.17
2019-03-06T02:18:22.624Z,8.53
2019-03-06T02:20:50.808Z,8.97
2019-03-06T02:23:19.044Z,8.40
2019-03-06T02:25:47.252Z,9.33
2019-03-06T02:28:15.472Z,9.13
2019-03-06T02:30:43.744Z,9.20
2019-03-06T02:33:11.920Z,8.73
2019-03-06T02:35:40.432Z,9.23
2019-03-06T02:38:08.676Z,9.63
2019-03-06T02:40:36.867Z,9.23
2019-03-06T02:43:05.048Z,9.63
2019-03-06T02:45:33.285Z,9.30
2019-03-06T02:48:01.485Z,10.20
2019-03-06T02:50:29.711Z,9.37
2019-03-06T02:52:57.926Z,9.57
2019-03-06T02:55:26.979Z,9.07
2019-03-06T02:57:56.831Z,9.57
2019-03-06T03:00:29.370Z,9.70
2019-03-06T03:03:01.943Z,9.70
2019-03-06T03:05:48.455Z,10.07
2019-03-06T03:08:16.638Z,9.40
2019-03-06T03:10:45.099Z,9.83
2019-03-06T03:13:13.314Z,10.20
2019-03-06T03:15:41.537Z,9.67
2019-03-06T03:18:09.750Z,10.30
2019-03-06T03:20:37.976Z,9.70
2019-03-06T03:23:06.279Z,9.73
2019-03-06T03:25:34.532Z,9.73
2019-03-06T03:28:02.746Z,9.47
2019-03-06T03:30:30.962Z,9.43
2019-03-06T03:33:00.150Z,10.40
2019-03-06T03:35:28.421Z,9.57
2019-03-06T03:37:57.113Z,10.00
2019-03-06T03:40:25.423Z,10.70
2019-03-06T03:42:53.637Z,11.27
2019-03-06T03:45:21.958Z,10.90
2019-03-06T03:47:50.242Z,11.10
2019-03-06T03:50:18.550Z,11.00
2019-03-06T03:52:46.810Z,11.77
2019-03-06T03:55:16.007Z,10.87
2019-03-06T03:57:44.272Z,12.17
2019-03-06T04:00:13.760Z,11.23
2019-03-06T04:02:42.083Z,12.77
2019-03-06T04:05:11.001Z,12.97
2019-03-06T04:07:39.219Z,13.00
2019-03-06T04:10:11.055Z,12.43
2019-03-06T04:12:39.278Z,13.17
2019-03-06T04:15:09.018Z,12.90
2019-03-06T04:17:37.573Z,12.33
2019-03-06T04:20:07.344Z,12.90
2019-03-06T04:22:35.599Z,13.53
2019-03-06T04:25:04.944Z,14.50
2019-03-06T04:27:33.132Z,14.50
2019-03-06T04:30:01.367Z,15.00
2019-03-06T04:32:29.621Z,14.47
2019-03-06T04:34:58.852Z,14.50
2019-03-06T04:37:27.028Z,14.43
2019-03-06T04:39:55.219Z,15.10
2019-03-06T04:42:23.407Z,13.90
2019-03-06T04:44:51.645Z,14.80
2019-03-06T04:47:19.930Z,14.30
2019-03-06T04:49:52.584Z,14.60
2019-03-06T04:52:18.043Z,14.33
2019-03-06T04:54:46.231Z,14.47
2019-03-06T04:57:14.774Z,14.47
2019-03-06T04:59:42.949Z,14.90
2019-03-06T05:02:12.095Z,15.00
2019-03-06T05:04:41.249Z,13.73
2019-03-06T05:07:09.489Z,15.93
2019-03-06T05:09:37.853Z,14.73
2019-03-06T05:12:06.064Z,16.13
2019-03-06T05:14:34.243Z,16.17
2019-03-06T05:17:04.104Z,14.37
2019-03-06T05:19:32.324Z,14.60
2019-03-06T05:22:00.614Z,15.10
2019-03-06T05:24:28.829Z,14.33
2019-03-06T05:26:57.052Z,14.30
2019-03-06T05:29:25.324Z,14.10
2019-03-06T05:32:11.838Z,14.33
2019-03-06T05:34:40.056Z,14.57
2019-03-06T05:37:12.775Z,14.00
2019-03-06T05:39:41.062Z,14.20
2019-03-06T05:42:09.317Z,15.60
2019-03-06T05:44:37.970Z,14.70
2019-03-06T05:47:06.248Z,13.67
2019-03-06T05:49:35.401Z,13.80
2019-03-06T05:52:03.609Z,14.33
2019-03-06T05:54:31.796Z,14.20
2019-03-06T05:57:00.364Z,14.20
2019-03-06T05:59:28.567Z,14.07
2019-03-06T06:01:56.752Z,13.73
2019-03-06T06:04:24.953Z,13.73
2019-03-06T06:06:53.138Z,13.47
2019-03-06T06:09:21.364Z,13.30
2019-03-06T06:11:49.682Z,14.20
2019-03-06T06:14:17.960Z,13.47
2019-03-06T06:16:46.160Z,13.07
2019-03-06T06:19:14.361Z,13.40
2019-03-06T06:21:47.123Z,14.23
2019-03-06T06:24:15.313Z,13.30
2019-03-06T06:26:43.535Z,12.70
2019-03-06T06:29:11.765Z,13.33
2019-03-06T06:31:40.308Z,12.40
2019-03-06T06:34:09.469Z,13.27
2019-03-06T06:36:37.700Z,12.77
2019-03-06T06:39:05.929Z,12.30
2019-03-06T06:41:34.219Z,12.30
2019-03-06T06:44:02.504Z,13.07
2019-03-06T06:46:30.896Z,13.40
2019-03-06T06:48:59.288Z,12.97
2019-03-06T06:51:31.809Z,12.83
2019-03-06T06:54:18.029Z,14.10
2019-03-06T06:56:56.600Z,13.63
2019-03-06T06:59:26.359Z,14.50
2019-03-06T07:02:15.973Z,12.47
2019-03-06T07:05:08.737Z,13.10
2019-03-06T07:07:44.575Z,13.57
2019-03-06T07:10:31.075Z,13.77
2019-03-06T07:13:03.883Z,12.03
2019-03-06T07:15:36.672Z,13.87
2019-03-06T07:18:07.597Z,13.67
2019-03-06T07:20:40.161Z,13.80
2019-03-06T07:23:10.053Z,12.97
2019-03-06T07:25:51.773Z,13.20
2019-03-06T07:28:21.703Z,12.57
2019-03-06T07:31:08.208Z,13.07
2019-03-06T07:33:38.035Z,12.70
2019-03-06T07:36:24.774Z,12.17
2019-03-06T07:38:53.404Z,12.83
2019-03-06T07:41:23.261Z,11.97
2019-03-06T07:43:53.224Z,12.43
2019-03-06T07:46:25.772Z,12.03
2019-03-06T07:49:08.069Z,11.90
2019-03-06T07:51:44.157Z,11.23
2019-03-06T07:54:14.039Z,10.53
2019-03-06T07:56:53.393Z,11.30
2019-03-06T07:59:21.641Z,11.60
2019-03-06T08:01:51.398Z,11.47
2019-03-06T08:04:19.620Z,9.97
2019-03-06T08:06:52.135Z,10.90
2019-03-06T08:09:20.494Z,10.80
2019-03-06T08:11:59.380Z,10.73
2019-03-06T08:14:45.562Z,11.10
2019-03-06T08:17:31.785Z,11.40
2019-03-06T08:20:07.834Z,12.13
2019-03-06T08:22:37.735Z,10.20
2019-03-06T08:25:08.236Z,11.33
2019-03-06T08:27:36.444Z,11.03
2019-03-06T08:30:06.348Z,10.57
2019-03-06T08:32:34.704Z,10.63
2019-03-06T08:35:03.019Z,10.97
2019-03-06T08:37:31.217Z,11.33
2019-03-06T08:39:59.433Z,10.00
2019-03-06T08:42:27.828Z,10.97
2019-03-06T08:44:56.020Z,10.53
2019-03-06T08:47:25.914Z,9.87
2019-03-06T08:49:55.744Z,10.23
2019-03-06T08:52:25.631Z,10.13
2019-03-06T08:55:01.347Z,10.43
2019-03-06T08:57:40.481Z,9.20
2019-03-06T09:07:37.365Z,10.60
2019-03-06T09:20:52.749Z,9.00
2019-03-06T09:23:25.308Z,8.90
2019-03-06T09:25:55.441Z,9.45
2019-03-06T09:28:25.328Z,8.10
2019-03-06T09:30:55.167Z,8.40
2019-03-06T09:33:27.925Z,8.90
2019-03-06T09:36:00.729Z,7.75
2019-03-06T09:38:48.719Z,8.30
2019-03-06T09:46:34.633Z,7.50
2019-03-06T09:54:22.570Z,7.50
2019-03-06T10:15:27.569Z,8.10
2019-03-06T10:17:58.345Z,8.30
2019-03-06T10:32:47.025Z,7.95
2019-03-06T10:35:15.684Z,7.95
2019-03-06T10:47:33.653Z,6.90
2019-03-06T10:50:01.973Z,6.53
2019-03-06T10:52:30.409Z,6.30
2019-03-06T10:57:26.133Z,6.45
2019-03-06T10:59:54.444Z,7.20
2019-03-06T11:04:51.978Z,5.95
2019-03-06T11:07:20.253Z,6.20
2019-03-06T11:09:48.605Z,6.25
2019-03-06T11:14:44.637Z,6.60
2019-03-06T11:17:13.291Z,6.20
2019-03-06T11:36:54.507Z,5.03
2019-03-06T11:54:07.281Z,5.00
2019-03-06T12:18:42.561Z,4.70
2019-03-06T12:23:38.245Z,4.80
2019-03-06T12:43:21.402Z,5.10
2019-03-06T12:46:07.080Z,4.90
2019-03-06T12:48:35.329Z,4.50
2019-03-06T12:51:04.419Z,4.50
2019-03-06T12:53:32.757Z,4.53
2019-03-06T12:56:01.026Z,4.60
2019-03-06T12:58:29.361Z,4.95
2019-03-06T13:00:57.638Z,4.20
2019-03-06T13:03:25.913Z,4.03
2019-03-06T13:05:54.244Z,3.40
2019-03-06T13:08:22.492Z,3.80
2019-03-06T13:32:59.988Z,3.20
2019-03-06T13:35:29.850Z,2.80
2019-03-06T13:37:58.294Z,2.87
2019-03-06T13:40:26.571Z,2.63
2019-03-06T13:42:54.792Z,2.67
2019-03-06T13:45:23.333Z,2.90
2019-03-06T13:47:51.621Z,3.20
2019-03-06T13:50:19.949Z,3.03
2019-03-06T13:52:48.220Z,3.63
2019-03-06T13:55:16.772Z,3.73
2019-03-06T13:57:45.613Z,3.03
2019-03-06T14:00:21.769Z,3.30
2019-03-06T14:02:50.936Z,3.00
2019-03-06T14:05:20.537Z,3.20
2019-03-06T14:07:55.978Z,3.70
2019-03-06T14:10:22.725Z,3.57
2019-03-06T14:12:51.373Z,2.93
2019-03-06T14:15:19.745Z,2.60
2019-03-06T14:17:48.273Z,2.83
2019-03-06T14:20:18.087Z,5.20
2019-03-06T14:22:46.398Z,3.63
2019-03-06T14:25:15.497Z,3.43
2019-03-06T14:27:44.384Z,3.50
2019-03-06T14:30:16.441Z,3.80
2019-03-06T14:32:44.733Z,3.80
2019-03-06T14:35:13.481Z,3.80
2019-03-06T14:37:41.745Z,3.60
2019-03-06T14:40:14.419Z,3.97
2019-03-06T14:42:42.927Z,3.87
2019-03-06T14:45:12.717Z,3.90
2019-03-06T14:47:40.976Z,3.50
2019-03-06T14:50:09.156Z,4.30
2019-03-06T14:52:37.361Z,3.60
2019-03-06T14:55:07.159Z,4.00
2019-03-06T15:04:57.856Z,4.10
2019-03-06T15:07:26.085Z,4.53
2019-03-06T15:09:54.417Z,4.90
2019-03-06T15:12:22.666Z,6.10
2019-03-06T15:14:50.919Z,5.40
2019-03-06T15:17:19.368Z,4.80
2019-03-06T15:19:47.698Z,4.70
2019-03-06T15:22:15.973Z,4.67
2019-03-06T15:24:44.258Z,4.60
2019-03-06T15:27:12.560Z,4.83
2019-03-06T15:29:40.935Z,4.47
2019-03-06T15:32:09.235Z,4.90
2019-03-06T15:34:37.441Z,5.20
2019-03-06T15:37:05.687Z,4.30
2019-03-06T15:39:42.755Z,5.00
2019-03-06T15:42:03.843Z,4.80
2019-03-06T15:44:32.458Z,4.93
2019-03-06T15:47:00.717Z,4.60
2019-03-06T15:49:29.735Z,4.50
2019-03-06T15:51:58.120Z,4.47
2019-03-06T15:54:26.325Z,4.33
2019-03-06T15:56:54.632Z,4.60
2019-03-06T15:59:23.009Z,5.53
2019-03-06T16:01:51.282Z,5.87
2019-03-06T16:04:19.694Z,5.57
2019-03-06T16:06:54.013Z,5.80
2019-03-06T16:09:17.874Z,6.33
2019-03-06T16:11:46.093Z,5.60
2019-03-06T16:14:14.683Z,6.13
2019-03-06T16:16:42.932Z,5.90
2019-03-06T16:19:11.203Z,6.73
2019-03-06T16:21:39.490Z,6.80
2019-03-06T16:24:09.715Z,6.50
2019-03-06T16:26:37.679Z,6.90
2019-03-06T16:29:06.180Z,6.57
2019-03-06T16:31:34.433Z,7.43
2019-03-06T16:34:02.708Z,8.10
2019-03-06T16:36:32.233Z,8.07
2019-03-06T16:39:00.485Z,7.97
2019-03-06T16:41:28.764Z,8.50
2019-03-06T16:43:57.288Z,8.17
2019-03-06T16:46:25.774Z,8.17
2019-03-06T16:48:53.956Z,8.47
2019-03-06T16:51:22.181Z,9.25
2019-03-06T16:53:50.436Z,9.57
2019-03-06T16:56:18.676Z,9.13
2019-03-06T16:58:47.238Z,8.30
2019-03-06T17:01:15.494Z,9.70
2019-03-06T17:03:43.785Z,9.03
2019-03-06T17:06:12.091Z,9.65
2019-03-06T17:08:40.385Z,9.60
2019-03-06T17:11:10.573Z,9.83
2019-03-06T17:13:39.049Z,8.90
2019-03-06T17:16:07.336Z,9.43
2019-03-06T17:18:35.564Z,11.10
2019-03-06T17:21:03.826Z,10.33
2019-03-06T17:23:32.069Z,11.47
2019-03-06T17:26:00.276Z,9.13
2019-03-06T17:28:28.576Z,9.90
2019-03-06T17:30:56.900Z,10.53
2019-03-06T17:33:25.100Z,9.90
2019-03-06T17:35:53.331Z,10.53
2019-03-06T17:38:21.629Z,9.37
2019-03-06T17:40:50.082Z,9.77
2019-03-06T17:43:18.429Z,9.80
2019-03-06T17:45:46.737Z,9.37
2019-03-06T17:48:15.048Z,9.00
2019-03-06T17:50:43.304Z,9.50
2019-03-06T17:53:11.645Z,8.93
2019-03-06T17:55:39.932Z,9.20
2019-03-06T17:58:08.254Z,9.13
2019-03-06T18:00:53.677Z,8.87
2019-03-06T18:03:25.884Z,8.73
2019-03-06T18:05:54.175Z,9.53
2019-03-06T18:08:22.394Z,10.00
2019-03-06T18:10:50.891Z,9.77
2019-03-06T18:13:19.169Z,9.60
2019-03-06T18:15:47.456Z,9.73
2019-03-06T18:18:15.721Z,8.73
2019-03-06T18:20:44.071Z,10.20
2019-03-06T18:23:12.325Z,9.37
2019-03-06T18:25:40.666Z,8.40
2019-03-06T18:28:09.020Z,8.40
2019-03-06T18:30:37.700Z,8.73
2019-03-06T18:33:06.017Z,8.30
2019-03-06T18:35:34.333Z,8.67
2019-03-06T18:38:02.632Z,8.67
2019-03-06T18:40:30.977Z,7.90
2019-03-06T18:42:59.592Z,8.10
2019-03-06T18:45:27.856Z,8.00
2019-03-06T18:47:56.158Z,7.63
2019-03-06T18:50:24.755Z,7.23
2019-03-06T18:52:53.003Z,8.17
2019-03-06T18:55:21.462Z,8.77
2019-03-06T18:57:49.784Z,9.50
2019-03-06T19:00:19.832Z,9.00
2019-03-06T19:02:48.083Z,8.00
2019-03-06T19:05:17.149Z,7.93
2019-03-06T19:07:45.365Z,8.20
2019-03-06T19:10:15.040Z,7.43
2019-03-06T19:12:43.365Z,7.63
2019-03-06T19:15:13.287Z,7.70
2019-03-06T19:17:41.588Z,7.10
2019-03-06T19:20:10.020Z,7.37
2019-03-06T19:22:38.419Z,7.40
2019-03-06T19:25:10.476Z,6.33
2019-03-06T19:27:38.713Z,7.33
2019-03-06T19:30:14.365Z,7.57
2019-03-06T19:32:42.681Z,8.40
2019-03-06T19:35:10.999Z,6.60
2019-03-06T19:37:39.273Z,6.47
2019-03-06T19:40:08.825Z,6.47
2019-03-06T19:42:37.040Z,6.70
2019-03-06T19:45:06.989Z,6.70
2019-03-06T19:47:35.293Z,6.10
2019-03-06T19:50:04.850Z,6.30
2019-03-06T19:52:33.138Z,6.70
2019-03-06T19:55:01.465Z,6.20
2019-03-06T19:57:31.300Z,5.50
2019-03-06T19:59:59.683Z,5.50
2019-03-06T20:02:27.889Z,6.00
2019-03-06T20:04:56.148Z,5.70
2019-03-06T20:07:24.401Z,5.60
2019-03-06T20:09:52.737Z,5.70
2019-03-06T20:12:21.021Z,6.13
2019-03-06T20:14:49.268Z,5.40
2019-03-06T20:17:17.535Z,5.73
2019-03-06T20:19:45.741Z,5.80
2019-03-06T20:22:14.050Z,5.30
2019-03-06T20:24:42.321Z,5.07
2019-03-06T20:27:10.633Z,5.50
2019-03-06T20:29:39.019Z,6.30
2019-03-06T20:32:07.222Z,5.70
2019-03-06T20:34:35.511Z,6.37
2019-03-06T20:37:03.997Z,6.30
2019-03-06T20:39:32.319Z,5.70
2019-03-06T20:42:00.645Z,6.00
2019-03-06T20:44:28.921Z,5.70
2019-03-06T20:46:57.209Z,6.10
2019-03-06T20:49:25.754Z,5.20
2019-03-06T20:51:54.041Z,5.53
2019-03-06T20:54:22.337Z,5.67
2019-03-06T20:56:50.590Z,5.60
2019-03-06T20:59:18.937Z,6.33
2019-03-06T21:01:47.183Z,6.60
2019-03-06T21:04:15.468Z,6.63
2019-03-06T21:06:44.069Z,6.03
2019-03-06T21:09:12.356Z,5.90
2019-03-06T21:11:40.610Z,6.07
2019-03-06T21:14:08.840Z,5.40
2019-03-06T21:16:37.049Z,6.40
2019-03-06T21:19:05.441Z,5.83
2019-03-06T21:21:33.692Z,6.37
2019-03-06T21:24:01.973Z,6.10
2019-03-06T21:26:30.271Z,6.13
2019-03-06T21:28:58.719Z,6.00
2019-03-06T21:31:26.968Z,6.33
2019-03-06T21:33:55.187Z,5.47
2019-03-06T21:36:23.492Z,5.13
2019-03-06T21:38:51.736Z,6.33
2019-03-06T21:41:20.034Z,6.07
2019-03-06T21:43:48.280Z,5.50
2019-03-06T21:46:16.858Z,5.37
2019-03-06T21:48:45.153Z,5.30
2019-03-06T21:51:13.436Z,5.77
2019-03-06T21:53:41.768Z,5.50
2019-03-06T21:56:11.582Z,5.30
2019-03-06T21:58:40.019Z,5.50
2019-03-06T22:01:08.338Z,5.80
2019-03-06T22:03:36.575Z,5.70
2019-03-06T22:06:04.869Z,4.83
2019-03-06T22:08:33.129Z,5.70
2019-03-06T22:11:01.313Z,6.20
2019-03-06T22:13:29.549Z,5.77
2019-03-06T22:15:57.748Z,4.83
2019-03-06T22:18:26.129Z,5.47
2019-03-06T22:20:54.379Z,5.57
2019-03-06T22:23:22.638Z,5.40
2019-03-06T22:25:50.925Z,5.43
2019-03-06T22:28:19.212Z,5.60
2019-03-06T22:30:47.493Z,5.50
2019-03-06T22:33:15.976Z,4.80
2019-03-06T22:35:44.391Z,5.60
2019-03-06T22:38:12.626Z,5.17
2019-03-06T22:40:40.946Z,5.90
2019-03-06T22:43:09.195Z,5.63
2019-03-06T22:45:37.502Z,5.57
2019-03-06T22:48:05.757Z,5.43
2019-03-06T22:50:34.326Z,5.33
2019-03-06T22:53:02.622Z,5.90
2019-03-06T22:55:30.924Z,5.77
2019-03-06T22:57:59.096Z,5.40
2019-03-06T23:00:28.845Z,5.97
2019-03-06T23:02:57.457Z,5.77
2019-03-06T23:05:29.841Z,6.30
2019-03-06T23:07:58.096Z,5.20
2019-03-06T23:10:26.324Z,6.40
2019-03-06T23:12:54.611Z,5.53
2019-03-06T23:15:22.793Z,5.50
2019-03-06T23:17:51.089Z,5.40
2019-03-06T23:20:19.320Z,5.70
2019-03-06T23:22:47.645Z,5.83
2019-03-06T23:25:18.027Z,5.47
2019-03-06T23:27:45.785Z,5.57
2019-03-06T23:30:14.783Z,5.43
2019-03-06T23:32:43.051Z,5.80
2019-03-06T23:35:11.300Z,5.83
2019-03-06T23:37:39.497Z,5.57
2019-03-06T23:40:09.268Z,5.87
2019-03-06T23:42:37.522Z,5.90
2019-03-06T23:45:06.540Z,5.80
2019-03-06T23:47:35.008Z,6.00
2019-03-06T23:50:04.300Z,5.77
2019-03-06T23:52:34.121Z,5.30
2019-03-06T23:55:02.332Z,5.90
2019-03-06T23:57:30.605Z,6.07
2019-03-06T23:59:58.913Z,5.30
